createdAt,value
2022-10-22T00:01:29.042Z,21.00
2022-10-22T00:03:56.335Z,21.00
2022-10-22T00:06:23.402Z,21.00
2022-10-22T00:08:50.723Z,20.80
2022-10-22T00:11:19.695Z,19.20
2022-10-22T00:16:19.434Z,21.20
2022-10-22T00:18:46.521Z,19.90
2022-10-22T00:21:13.702Z,19.50
2022-10-22T00:23:43.442Z,19.60
2022-10-22T00:26:11.412Z,21.00
2022-10-22T00:28:38.807Z,20.20
2022-10-22T00:31:06.960Z,20.60
2022-10-22T00:33:34.059Z,20.60
2022-10-22T00:36:01.966Z,19.30
2022-10-22T00:38:29.092Z,20.00
2022-10-22T00:40:56.085Z,20.30
2022-10-22T00:43:23.298Z,21.80
2022-10-22T00:45:50.688Z,21.10
2022-10-22T00:48:20.893Z,21.10
2022-10-22T00:50:51.136Z,20.30
2022-10-22T00:53:20.704Z,20.20
2022-10-22T00:55:53.370Z,20.00
2022-10-22T00:58:21.625Z,20.70
2022-10-22T01:00:49.731Z,21.30
2022-10-22T01:03:17.610Z,20.60
2022-10-22T01:05:52.193Z,20.00
2022-10-22T01:08:26.709Z,19.20
2022-10-22T01:11:01.498Z,19.90
2022-10-22T01:13:40.725Z,20.10
2022-10-22T01:16:12.926Z,19.50
2022-10-22T01:18:51.556Z,20.10
2022-10-22T01:21:26.417Z,19.70
2022-10-22T01:24:17.346Z,19.90
2022-10-22T01:27:01.195Z,18.60
2022-10-22T01:29:31.624Z,18.50
2022-10-22T01:32:02.360Z,19.40
2022-10-22T01:34:31.549Z,18.80
2022-10-22T01:37:00.651Z,18.70
2022-10-22T01:39:29.533Z,19.90
2022-10-22T01:41:59.318Z,18.40
2022-10-22T01:44:34.026Z,18.40
2022-10-22T01:47:15.564Z,18.70
2022-10-22T01:50:05.163Z,19.00
2022-10-22T01:52:47.668Z,19.40
2022-10-22T01:55:22.174Z,18.50
2022-10-22T01:58:15.513Z,19.50
2022-10-22T02:00:51.828Z,18.30
2022-10-22T02:03:26.691Z,18.70
2022-10-22T02:05:58.082Z,18.50
2022-10-22T02:08:29.220Z,17.80
2022-10-22T02:10:58.566Z,18.20
2022-10-22T02:13:29.451Z,17.90
2022-10-22T02:15:58.396Z,18.10
2022-10-22T02:18:29.277Z,18.60
2022-10-22T02:20:57.127Z,18.50
2022-10-22T02:23:25.051Z,17.80
2022-10-22T02:25:57.019Z,18.30
2022-10-22T02:28:28.713Z,18.10
2022-10-22T02:31:01.518Z,17.80
2022-10-22T02:33:32.789Z,18.40
2022-10-22T02:36:02.288Z,19.00
2022-10-22T02:38:30.391Z,18.70
2022-10-22T02:40:57.602Z,18.20
2022-10-22T02:43:26.879Z,18.70
2022-10-22T02:45:54.157Z,18.80
2022-10-22T02:50:53.176Z,18.30
2022-10-22T02:53:20.250Z,18.50
2022-10-22T02:55:47.259Z,19.10
2022-10-22T02:58:15.120Z,18.80
2022-10-22T03:00:42.511Z,18.40
2022-10-22T03:03:09.738Z,18.50
2022-10-22T03:05:36.939Z,17.70
2022-10-22T03:08:03.906Z,16.90
2022-10-22T03:10:31.030Z,17.50
2022-10-22T03:12:58.030Z,16.80
2022-10-22T03:15:25.191Z,18.10
2022-10-22T03:17:52.318Z,17.60
2022-10-22T03:20:19.314Z,17.70
2022-10-22T03:22:46.647Z,17.80
2022-10-22T03:25:17.697Z,17.20
2022-10-22T03:27:45.061Z,17.00
2022-10-22T03:30:13.777Z,17.20
2022-10-22T03:32:40.904Z,17.10
2022-10-22T03:35:09.859Z,17.70
2022-10-22T03:37:38.516Z,17.30
2022-10-22T03:40:07.392Z,17.80
2022-10-22T03:42:34.687Z,16.70
2022-10-22T03:45:01.796Z,16.70
2022-10-22T03:47:28.867Z,16.50
2022-10-22T03:49:55.930Z,17.10
2022-10-22T03:52:23.041Z,16.50
2022-10-22T03:54:50.228Z,16.20
2022-10-22T03:57:17.425Z,17.00
2022-10-22T03:59:46.973Z,15.80
2022-10-22T04:02:14.973Z,15.80
2022-10-22T04:04:42.082Z,16.00
2022-10-22T04:07:09.678Z,16.00
2022-10-22T04:09:37.410Z,16.70
2022-10-22T04:12:05.707Z,15.70
2022-10-22T04:14:32.889Z,15.10
2022-10-22T04:16:59.876Z,15.50
2022-10-22T04:19:27.200Z,16.40
2022-10-22T04:21:54.250Z,16.20
2022-10-22T04:24:21.194Z,16.20
2022-10-22T04:26:48.541Z,15.70
2022-10-22T04:29:16.363Z,14.80
2022-10-22T04:31:43.796Z,15.20
2022-10-22T04:34:10.856Z,15.00
2022-10-22T04:36:38.043Z,14.70
2022-10-22T04:39:05.715Z,14.80
2022-10-22T04:41:34.815Z,14.80
2022-10-22T04:44:02.008Z,14.90
2022-10-22T04:46:31.206Z,15.10
2022-10-22T04:48:58.301Z,14.00
2022-10-22T04:51:27.103Z,15.30
2022-10-22T04:53:54.394Z,14.90
2022-10-22T04:56:23.626Z,15.40
2022-10-22T04:58:51.761Z,14.50
2022-10-22T05:01:20.542Z,15.80
2022-10-22T05:03:48.486Z,15.20
2022-10-22T05:06:16.465Z,16.00
2022-10-22T05:08:43.940Z,16.60
2022-10-22T05:11:19.250Z,16.80
2022-10-22T05:13:47.156Z,15.70
2022-10-22T05:16:14.574Z,16.40
2022-10-22T05:18:43.371Z,15.40
2022-10-22T05:21:14.014Z,14.80
2022-10-22T05:23:41.597Z,15.50
2022-10-22T05:26:10.715Z,15.10
2022-10-22T05:28:38.730Z,15.30
2022-10-22T05:31:07.205Z,15.10
2022-10-22T05:33:35.484Z,15.10
2022-10-22T05:36:03.552Z,15.60
2022-10-22T05:38:30.685Z,15.60
2022-10-22T05:41:05.276Z,14.80
2022-10-22T05:43:32.624Z,15.10
2022-10-22T05:46:03.164Z,14.50
2022-10-22T05:48:30.346Z,14.40
2022-10-22T05:50:57.445Z,14.10
2022-10-22T05:53:24.991Z,14.00
2022-10-22T05:55:52.533Z,14.30
2022-10-22T05:58:19.702Z,15.00
2022-10-22T06:00:46.657Z,14.90
2022-10-22T06:03:13.895Z,14.80
2022-10-22T06:05:40.994Z,15.30
2022-10-22T06:08:12.047Z,14.90
2022-10-22T06:10:44.936Z,16.10
2022-10-22T06:13:11.939Z,15.70
2022-10-22T06:15:39.212Z,14.30
2022-10-22T06:18:06.335Z,15.00
2022-10-22T06:20:34.886Z,15.00
2022-10-22T06:23:02.134Z,15.00
2022-10-22T06:25:29.201Z,14.50
2022-10-22T06:27:56.186Z,14.20
2022-10-22T06:30:23.214Z,15.00
2022-10-22T06:32:50.660Z,14.80
2022-10-22T06:35:17.868Z,15.20
2022-10-22T06:37:44.825Z,15.70
2022-10-22T06:40:13.980Z,15.00
2022-10-22T06:42:41.352Z,15.10
2022-10-22T06:45:11.861Z,15.30
2022-10-22T06:47:39.241Z,15.90
2022-10-22T06:50:07.683Z,15.60
2022-10-22T06:52:34.684Z,15.90
2022-10-22T06:55:02.042Z,15.50
2022-10-22T06:57:29.120Z,14.50
2022-10-22T06:59:56.235Z,15.20
2022-10-22T07:02:23.673Z,14.40
2022-10-22T07:04:50.751Z,14.50
2022-10-22T07:07:17.921Z,15.30
2022-10-22T07:09:46.867Z,15.50
2022-10-22T07:12:14.188Z,15.40
2022-10-22T07:14:41.570Z,14.40
2022-10-22T07:17:08.896Z,14.80
2022-10-22T07:19:36.013Z,14.60
2022-10-22T07:22:03.493Z,13.70
2022-10-22T07:24:30.804Z,14.90
2022-10-22T07:26:57.895Z,14.80
2022-10-22T07:29:24.953Z,15.50
2022-10-22T07:31:52.411Z,15.60
2022-10-22T07:36:47.440Z,16.40
2022-10-22T07:39:14.509Z,16.10
2022-10-22T07:41:41.522Z,15.90
2022-10-22T07:44:09.023Z,15.10
2022-10-22T07:46:36.484Z,15.00
2022-10-22T07:49:03.675Z,15.30
2022-10-22T07:51:30.872Z,15.40
2022-10-22T07:53:57.912Z,14.90
2022-10-22T07:56:25.145Z,16.10
2022-10-22T07:58:52.378Z,15.90
2022-10-22T08:01:19.631Z,17.00
2022-10-22T08:03:46.789Z,15.30
2022-10-22T08:06:15.895Z,14.30
2022-10-22T08:08:43.569Z,15.90
2022-10-22T08:11:11.132Z,14.00
2022-10-22T08:13:44.128Z,15.70
2022-10-22T08:16:15.034Z,14.80
2022-10-22T08:18:42.037Z,14.60
2022-10-22T08:21:09.673Z,15.90
2022-10-22T08:23:36.801Z,17.20
2022-10-22T08:26:04.187Z,16.50
2022-10-22T08:28:36.105Z,15.90
2022-10-22T08:31:03.134Z,15.70
2022-10-22T08:33:30.211Z,15.60
2022-10-22T08:35:57.433Z,16.40
2022-10-22T08:38:24.876Z,17.30
2022-10-22T08:40:55.100Z,16.90
2022-10-22T08:43:45.293Z,18.10
2022-10-22T08:46:25.117Z,16.90
2022-10-22T08:48:54.841Z,16.80
2022-10-22T08:51:27.076Z,18.80
2022-10-22T08:54:13.893Z,17.90
2022-10-22T08:56:44.157Z,17.40
2022-10-22T08:59:18.603Z,16.80
2022-10-22T09:01:48.994Z,17.10
2022-10-22T09:04:25.311Z,17.40
2022-10-22T09:06:54.364Z,16.60
2022-10-22T09:09:22.714Z,17.00
2022-10-22T09:11:52.258Z,18.00
2022-10-22T09:14:23.352Z,16.50
2022-10-22T09:17:12.807Z,17.10
2022-10-22T09:19:49.553Z,16.80
2022-10-22T09:22:29.241Z,17.60
2022-10-22T09:25:00.539Z,17.60
2022-10-22T09:27:31.904Z,16.40
2022-10-22T09:29:59.483Z,17.30
2022-10-22T09:32:27.520Z,17.80
2022-10-22T09:34:59.279Z,19.20
2022-10-22T09:37:30.515Z,16.80
2022-10-22T09:40:00.094Z,18.20
2022-10-22T09:42:27.734Z,17.80
2022-10-22T09:44:58.895Z,18.00
2022-10-22T09:47:43.478Z,18.40
2022-10-22T09:50:31.574Z,18.40
2022-10-22T09:53:02.704Z,17.80
2022-10-22T09:55:30.608Z,17.50
2022-10-22T09:58:00.209Z,18.40
2022-10-22T10:00:28.818Z,18.10
2022-10-22T10:02:59.657Z,16.50
2022-10-22T10:05:31.977Z,17.60
2022-10-22T10:07:59.493Z,17.80
2022-10-22T10:10:34.993Z,18.60
2022-10-22T10:13:10.835Z,18.50
2022-10-22T10:15:45.243Z,17.70
2022-10-22T10:18:26.338Z,18.00
2022-10-22T10:21:00.806Z,17.50
2022-10-22T10:23:35.039Z,18.40
2022-10-22T10:26:09.223Z,17.20
2022-10-22T10:28:53.282Z,17.00
2022-10-22T10:31:27.738Z,19.00
2022-10-22T10:34:04.743Z,18.60
2022-10-22T10:39:05.462Z,18.20
2022-10-22T10:41:43.534Z,18.20
2022-10-22T10:44:39.975Z,17.80
2022-10-22T10:47:17.339Z,19.20
2022-10-22T10:49:47.155Z,17.10
2022-10-22T10:52:23.819Z,18.80
2022-10-22T10:55:03.501Z,16.70
2022-10-22T10:57:46.885Z,18.10
2022-10-22T11:00:19.852Z,17.90
2022-10-22T11:03:17.227Z,18.90
2022-10-22T11:05:46.905Z,19.40
2022-10-22T11:08:20.135Z,18.30
2022-10-22T11:10:51.069Z,18.40
2022-10-22T11:13:23.717Z,19.50
2022-10-22T11:15:56.654Z,20.70
2022-10-22T11:18:30.255Z,20.20
2022-10-22T11:21:04.736Z,20.50
2022-10-22T11:23:38.679Z,20.20
2022-10-22T11:26:11.612Z,21.10
2022-10-22T11:28:43.468Z,19.40
2022-10-22T11:31:15.895Z,19.10
2022-10-22T11:33:49.734Z,18.60
2022-10-22T11:36:18.851Z,18.40
2022-10-22T11:38:46.005Z,20.20
2022-10-22T11:41:17.690Z,19.40
2022-10-22T11:44:10.707Z,21.30
2022-10-22T11:46:58.183Z,20.90
2022-10-22T11:52:24.130Z,21.20
2022-10-22T11:57:27.400Z,21.50
2022-10-22T11:59:57.966Z,22.00
2022-10-22T12:02:43.195Z,22.50
2022-10-22T12:05:40.303Z,23.40
2022-10-22T12:08:24.527Z,23.30
2022-10-22T12:11:13.279Z,22.80
2022-10-22T12:16:55.574Z,21.20
2022-10-22T12:19:31.511Z,22.30
2022-10-22T12:22:03.303Z,21.80
2022-10-22T12:24:35.650Z,22.80
2022-10-22T12:27:02.968Z,23.30
2022-10-22T12:29:32.938Z,21.10
2022-10-22T12:32:04.057Z,22.60
2022-10-22T12:34:31.217Z,22.10
2022-10-22T12:36:58.250Z,21.90
2022-10-22T12:39:30.078Z,22.20
2022-10-22T12:41:57.686Z,21.60
2022-10-22T12:44:24.681Z,22.40
2022-10-22T12:46:56.152Z,22.60
2022-10-22T12:49:30.089Z,21.80
2022-10-22T12:52:01.863Z,20.70
2022-10-22T12:54:32.066Z,19.80
2022-10-22T12:57:00.468Z,19.40
2022-10-22T12:59:30.385Z,19.40
2022-10-22T13:01:58.291Z,19.70
2022-10-22T13:04:35.901Z,20.90
2022-10-22T13:07:22.852Z,20.70
2022-10-22T13:09:59.075Z,23.00
2022-10-22T13:12:29.333Z,22.00
2022-10-22T13:14:56.446Z,21.90
2022-10-22T13:17:39.537Z,20.40
2022-10-22T13:20:17.461Z,21.20
2022-10-22T13:22:58.194Z,21.10
2022-10-22T13:25:27.509Z,21.80
2022-10-22T13:27:57.457Z,20.00
2022-10-22T13:30:26.543Z,21.40
2022-10-22T13:32:56.102Z,21.00
2022-10-22T13:35:25.619Z,21.00
2022-10-22T13:37:52.720Z,20.70
2022-10-22T13:40:20.418Z,21.50
2022-10-22T13:42:47.447Z,21.70
2022-10-22T13:45:15.521Z,20.90
2022-10-22T13:47:43.907Z,20.20
2022-10-22T13:50:16.981Z,21.30
2022-10-22T13:52:47.132Z,21.10
2022-10-22T13:55:19.483Z,20.90
2022-10-22T13:57:47.035Z,22.70
2022-10-22T14:00:18.321Z,22.40
2022-10-22T14:02:47.781Z,22.20
2022-10-22T14:05:15.203Z,23.90
2022-10-22T14:07:42.521Z,23.80
2022-10-22T14:10:21.022Z,23.00
2022-10-22T14:12:52.402Z,22.40
2022-10-22T14:15:22.514Z,22.70
2022-10-22T14:17:54.933Z,24.00
2022-10-22T14:20:27.655Z,23.80
2022-10-22T14:22:54.706Z,23.20
2022-10-22T14:25:23.787Z,23.90
2022-10-22T14:27:51.475Z,23.90
2022-10-22T14:30:20.822Z,23.80
2022-10-22T14:32:49.034Z,24.40
2022-10-22T14:35:18.301Z,24.20
2022-10-22T14:37:45.368Z,24.40
2022-10-22T14:40:16.657Z,23.30
2022-10-22T14:42:45.296Z,24.70
2022-10-22T14:45:17.949Z,24.40
2022-10-22T14:47:45.541Z,25.90
2022-10-22T14:50:13.868Z,26.20
2022-10-22T14:52:43.638Z,25.60
2022-10-22T14:55:12.577Z,25.20
2022-10-22T14:57:40.414Z,25.40
2022-10-22T15:00:11.129Z,26.10
2022-10-22T15:02:38.797Z,25.20
2022-10-22T15:05:07.193Z,25.70
2022-10-22T15:07:34.396Z,26.30
2022-10-22T15:10:01.712Z,25.40
2022-10-22T15:12:28.969Z,26.50
2022-10-22T15:14:55.957Z,28.20
2022-10-22T15:17:23.100Z,27.60
2022-10-22T15:19:50.266Z,27.20
2022-10-22T15:22:17.578Z,27.50
2022-10-22T15:24:44.896Z,26.60
2022-10-22T15:27:13.780Z,26.10
2022-10-22T15:29:41.094Z,25.00
2022-10-22T15:32:10.561Z,26.90
2022-10-22T15:34:40.321Z,26.30
2022-10-22T15:37:08.907Z,27.60
2022-10-22T15:39:36.443Z,26.80
2022-10-22T15:42:03.512Z,27.40
2022-10-22T15:44:32.145Z,28.00
2022-10-22T15:46:59.745Z,26.60
2022-10-22T15:49:28.544Z,25.30
2022-10-22T15:51:56.067Z,28.30
2022-10-22T15:54:30.558Z,27.00
2022-10-22T15:56:58.970Z,27.70
2022-10-22T15:59:26.085Z,27.10
2022-10-22T16:01:53.381Z,27.30
2022-10-22T16:04:20.776Z,27.80
2022-10-22T16:06:49.986Z,28.00
2022-10-22T16:09:18.857Z,28.90
2022-10-22T16:11:46.838Z,28.20
2022-10-22T16:14:15.957Z,29.00
2022-10-22T16:16:46.603Z,28.60
2022-10-22T16:19:14.485Z,28.80
2022-10-22T16:21:42.234Z,28.30
2022-10-22T16:24:10.769Z,29.10
2022-10-22T16:26:38.180Z,29.50
2022-10-22T16:29:05.591Z,29.00
2022-10-22T16:31:32.757Z,29.70
2022-10-22T16:34:00.392Z,29.80
2022-10-22T16:36:27.767Z,29.60
2022-10-22T16:38:56.480Z,29.70
2022-10-22T16:41:25.108Z,30.00
2022-10-22T16:43:53.845Z,29.90
2022-10-22T16:46:23.234Z,31.60
2022-10-22T16:48:51.466Z,30.80
2022-10-22T16:51:20.733Z,30.20
2022-10-22T16:53:48.083Z,31.80
2022-10-22T16:56:16.572Z,31.60
2022-10-22T16:58:47.803Z,32.40
2022-10-22T17:01:17.970Z,31.50
2022-10-22T17:03:45.320Z,32.10
2022-10-22T17:06:13.152Z,33.00
2022-10-22T17:08:42.130Z,32.60
2022-10-22T17:11:14.353Z,32.70
2022-10-22T17:13:43.128Z,34.30
2022-10-22T17:16:12.539Z,35.20
2022-10-22T17:18:41.218Z,34.00
2022-10-22T17:21:09.609Z,33.90
2022-10-22T17:23:36.845Z,33.70
2022-10-22T17:26:06.627Z,33.40
2022-10-22T17:28:34.113Z,34.60
2022-10-22T17:31:16.186Z,34.90
2022-10-22T17:33:43.551Z,34.10
2022-10-22T17:36:13.737Z,34.10
2022-10-22T17:38:42.567Z,33.70
2022-10-22T17:41:14.531Z,34.00
2022-10-22T17:43:41.884Z,33.30
2022-10-22T17:46:11.904Z,33.50
2022-10-22T17:48:39.324Z,33.50
2022-10-22T17:51:10.717Z,32.50
2022-10-22T17:53:40.717Z,32.20
2022-10-22T17:56:10.312Z,33.30
2022-10-22T17:58:37.813Z,34.10
2022-10-22T18:01:05.668Z,33.20
2022-10-22T18:03:33.032Z,33.50
2022-10-22T18:06:10.081Z,33.50
2022-10-22T18:08:37.424Z,33.70
2022-10-22T18:11:09.015Z,33.60
2022-10-22T18:13:36.558Z,33.80
2022-10-22T18:16:03.907Z,33.30
2022-10-22T18:18:32.149Z,35.30
2022-10-22T18:21:00.630Z,34.10
2022-10-22T18:23:27.868Z,34.10
2022-10-22T18:25:55.430Z,36.00
2022-10-22T18:28:22.589Z,35.30
2022-10-22T18:30:50.469Z,36.10
2022-10-22T18:33:20.009Z,35.40
2022-10-22T18:35:48.437Z,35.10
2022-10-22T18:38:16.169Z,34.50
2022-10-22T18:40:49.953Z,34.60
2022-10-22T18:43:22.923Z,34.30
2022-10-22T18:45:50.694Z,34.00
2022-10-22T18:48:41.191Z,34.60
2022-10-22T18:51:33.038Z,35.00
2022-10-22T18:54:31.671Z,33.40
2022-10-22T18:57:41.266Z,35.10
2022-10-22T19:01:26.579Z,34.90
2022-10-22T19:05:44.518Z,33.40
2022-10-22T19:08:25.729Z,32.70
2022-10-22T19:11:36.970Z,32.90
2022-10-22T19:22:42.473Z,30.10
2022-10-22T19:26:19.307Z,30.40
2022-10-22T19:29:22.268Z,29.50
2022-10-22T19:32:30.244Z,28.40
2022-10-22T19:36:34.441Z,28.40
2022-10-22T19:43:14.370Z,27.30
2022-10-22T19:46:27.882Z,26.70
2022-10-22T19:49:32.442Z,27.40
2022-10-22T19:52:20.244Z,26.20
2022-10-22T19:55:16.004Z,25.60
2022-10-22T19:58:29.998Z,24.10
2022-10-22T20:01:29.106Z,25.10
2022-10-22T20:03:56.342Z,24.60
2022-10-22T20:06:37.198Z,25.30
2022-10-22T20:09:18.193Z,24.00
2022-10-22T20:14:52.160Z,23.70
2022-10-22T20:17:23.750Z,23.10
2022-10-22T20:20:30.919Z,22.10
2022-10-22T20:26:16.775Z,22.60
2022-10-22T20:28:51.559Z,22.00
2022-10-22T20:31:43.796Z,21.40
2022-10-22T20:34:34.730Z,21.90
2022-10-22T20:37:29.527Z,21.00
2022-10-22T20:39:59.731Z,22.50
2022-10-22T20:42:26.933Z,20.40
2022-10-22T20:44:54.036Z,21.10
2022-10-22T20:47:21.228Z,20.20
2022-10-22T20:49:48.462Z,20.30
2022-10-22T20:52:15.644Z,20.90
2022-10-22T20:54:45.300Z,20.40
2022-10-22T20:57:13.330Z,20.60
2022-10-22T20:59:40.423Z,19.30
2022-10-22T21:02:10.276Z,17.80
2022-10-22T21:04:38.820Z,19.10
2022-10-22T21:07:07.725Z,17.60
2022-10-22T21:09:35.404Z,17.30
2022-10-22T21:12:03.575Z,17.40
2022-10-22T21:14:30.723Z,15.80
2022-10-22T21:16:59.216Z,16.90
2022-10-22T21:19:26.760Z,16.90
2022-10-22T21:21:54.082Z,16.00
2022-10-22T21:24:24.852Z,15.50
2022-10-22T21:26:53.319Z,14.60
2022-10-22T21:29:22.118Z,14.50
2022-10-22T21:31:49.106Z,15.10
2022-10-22T21:34:17.373Z,14.90
2022-10-22T21:39:17.656Z,15.00
2022-10-22T21:41:44.788Z,14.90
2022-10-22T21:44:11.928Z,14.70
2022-10-22T21:46:39.132Z,14.50
2022-10-22T21:49:07.039Z,14.40
2022-10-22T21:51:38.604Z,15.00
2022-10-22T21:54:06.185Z,14.90
2022-10-22T21:56:37.188Z,15.10
2022-10-22T21:59:05.772Z,14.90
2022-10-22T22:01:33.009Z,15.00
2022-10-22T22:04:00.484Z,15.90
2022-10-22T22:06:29.616Z,15.80
2022-10-22T22:08:58.056Z,15.30
2022-10-22T22:11:27.040Z,16.40
2022-10-22T22:13:55.142Z,16.50
2022-10-22T22:16:28.195Z,15.60
2022-10-22T22:18:56.387Z,16.30
2022-10-22T22:21:23.890Z,15.80
2022-10-22T22:23:51.892Z,16.00
2022-10-22T22:26:25.437Z,15.70
2022-10-22T22:28:55.536Z,17.10
2022-10-22T22:31:26.071Z,15.60
2022-10-22T22:33:53.421Z,15.40
2022-10-22T22:36:20.520Z,15.80
2022-10-22T22:38:47.526Z,16.70
2022-10-22T22:41:14.694Z,16.50
2022-10-22T22:43:41.701Z,16.90
2022-10-22T22:46:12.175Z,17.30
2022-10-22T22:48:39.446Z,16.70
2022-10-22T22:51:07.569Z,16.70
2022-10-22T22:53:35.807Z,17.40
2022-10-22T22:56:08.344Z,16.90
2022-10-22T22:58:35.674Z,16.40
2022-10-22T23:01:14.787Z,15.80
2022-10-22T23:03:42.468Z,15.60
2022-10-22T23:06:10.729Z,16.00
2022-10-22T23:08:37.941Z,15.60
2022-10-22T23:11:07.907Z,14.90
2022-10-22T23:13:35.473Z,15.80
2022-10-22T23:16:05.578Z,15.70
2022-10-22T23:18:32.567Z,15.10
2022-10-22T23:20:59.531Z,15.50
2022-10-22T23:23:26.624Z,15.10
2022-10-22T23:28:29.281Z,15.40
2022-10-22T23:30:56.752Z,15.00
2022-10-22T23:33:23.876Z,15.20
2022-10-22T23:35:50.802Z,15.40
2022-10-22T23:38:17.743Z,15.50
2022-10-22T23:40:44.766Z,16.20
2022-10-22T23:43:11.821Z,16.50
2022-10-22T23:45:39.397Z,17.10
2022-10-22T23:48:07.080Z,17.10
2022-10-22T23:50:34.033Z,16.70
2022-10-22T23:53:00.982Z,17.40
2022-10-22T23:55:28.033Z,16.30
2022-10-22T23:57:55.196Z,16.10
